createdAt,value
2018-09-13T00:00:22.564Z,6.10
2018-09-13T00:01:53.929Z,6.40
2018-09-13T00:03:25.503Z,6.40
2018-09-13T00:06:28.738Z,6.60
2018-09-13T00:08:00.211Z,9.90
2018-09-13T00:09:31.785Z,6.40
2018-09-13T00:11:03.349Z,6.90
2018-09-13T00:12:35.019Z,6.90
2018-09-13T00:14:06.488Z,5.80
2018-09-13T00:15:38.117Z,5.60
2018-09-13T00:17:09.685Z,6.60
2018-09-13T00:18:41.554Z,6.20
2018-09-13T00:20:12.824Z,6.70
2018-09-13T00:21:44.396Z,5.50
2018-09-13T00:23:15.964Z,5.20
2018-09-13T00:24:47.684Z,5.80
2018-09-13T00:26:19.104Z,6.00
2018-09-13T00:27:50.673Z,5.90
2018-09-13T00:29:22.244Z,5.80
2018-09-13T00:30:54.470Z,5.00
2018-09-13T00:32:25.383Z,6.00
2018-09-13T00:33:56.953Z,5.40
2018-09-13T00:35:28.524Z,6.30
2018-09-13T00:37:00.343Z,5.00
2018-09-13T00:38:31.664Z,7.90
2018-09-13T00:40:03.233Z,5.80
2018-09-13T00:41:34.806Z,5.30
2018-09-13T00:43:06.574Z,7.30
2018-09-13T00:44:37.943Z,5.30
2018-09-13T00:46:09.513Z,5.70
2018-09-13T00:47:41.086Z,5.60
2018-09-13T00:49:12.803Z,6.10
2018-09-13T00:50:44.221Z,5.70
2018-09-13T00:52:15.792Z,6.90
2018-09-13T00:53:47.564Z,8.50
2018-09-13T00:55:19.233Z,6.90
2018-09-13T00:56:50.505Z,5.40
2018-09-13T00:58:22.072Z,5.40
2018-09-13T00:59:53.642Z,7.70
2018-09-13T01:01:25.368Z,5.70
2018-09-13T01:02:56.781Z,7.30
2018-09-13T01:04:28.352Z,5.90
2018-09-13T01:07:31.649Z,6.10
2018-09-13T01:09:03.061Z,8.00
2018-09-13T01:10:34.631Z,6.10
2018-09-13T01:12:06.201Z,5.90
2018-09-13T01:13:38.072Z,6.10
2018-09-13T01:15:09.344Z,5.50
2018-09-13T01:16:41.252Z,5.50
2018-09-13T01:18:12.481Z,4.60
2018-09-13T01:19:44.822Z,4.50
2018-09-13T01:21:15.620Z,5.10
2018-09-13T01:22:47.190Z,5.00
2018-09-13T01:24:18.759Z,5.00
2018-09-13T01:25:50.482Z,6.30
2018-09-13T01:27:21.900Z,4.30
2018-09-13T01:28:53.470Z,4.20
2018-09-13T01:30:25.041Z,4.80
2018-09-13T01:31:56.876Z,4.70
2018-09-13T01:33:28.179Z,7.20
2018-09-13T01:34:59.752Z,4.00
2018-09-13T01:36:31.319Z,3.90
2018-09-13T01:38:03.040Z,4.20
2018-09-13T01:39:34.457Z,4.80
2018-09-13T01:41:06.027Z,3.80
2018-09-13T01:42:37.597Z,3.80
2018-09-13T01:44:09.317Z,4.40
2018-09-13T01:45:41.510Z,3.80
2018-09-13T01:47:12.306Z,4.40
2018-09-13T01:48:43.881Z,4.50
2018-09-13T01:50:15.697Z,5.00
2018-09-13T01:51:47.017Z,5.40
2018-09-13T01:53:18.586Z,4.40
2018-09-13T01:54:50.155Z,4.00
2018-09-13T01:56:21.928Z,4.80
2018-09-13T01:57:53.295Z,3.50
2018-09-13T01:59:24.866Z,5.90
2018-09-13T02:00:56.443Z,3.30
2018-09-13T02:02:28.106Z,3.60
2018-09-13T02:03:59.691Z,4.60
2018-09-13T02:05:31.145Z,3.80
2018-09-13T02:07:02.714Z,3.60
2018-09-13T02:08:34.587Z,3.70
2018-09-13T02:10:05.857Z,4.20
2018-09-13T02:11:37.424Z,3.70
2018-09-13T02:13:09.011Z,4.00
2018-09-13T02:14:40.768Z,3.50
2018-09-13T02:16:12.134Z,3.80
2018-09-13T02:17:43.703Z,4.60
2018-09-13T02:19:15.273Z,3.10
2018-09-13T02:20:46.993Z,4.20
2018-09-13T02:22:18.413Z,4.40
2018-09-13T02:23:49.983Z,3.40
2018-09-13T02:25:21.553Z,4.80
2018-09-13T02:26:53.376Z,5.10
2018-09-13T02:28:24.725Z,3.90
2018-09-13T02:29:56.262Z,3.90
2018-09-13T02:31:27.834Z,4.10
2018-09-13T02:32:59.554Z,4.00
2018-09-13T02:34:30.974Z,3.90
2018-09-13T02:36:02.542Z,4.10
2018-09-13T02:37:34.112Z,4.50
2018-09-13T02:39:05.832Z,4.30
2018-09-13T02:40:37.257Z,3.80
2018-09-13T02:42:08.768Z,3.00
2018-09-13T02:43:40.336Z,3.90
2018-09-13T02:45:12.106Z,3.40
2018-09-13T02:47:09.191Z,3.90
2018-09-13T02:48:15.088Z,4.00
2018-09-13T02:49:46.858Z,5.00
2018-09-13T02:51:18.326Z,3.60
2018-09-13T02:52:49.812Z,3.20
2018-09-13T02:54:21.384Z,4.00
2018-09-13T02:55:52.954Z,3.10
2018-09-13T02:57:24.672Z,3.50
2018-09-13T02:58:56.661Z,3.40
2018-09-13T03:00:27.662Z,5.50
2018-09-13T03:01:59.232Z,4.60
2018-09-13T03:03:31.906Z,4.20
2018-09-13T03:05:02.371Z,4.30
2018-09-13T03:06:33.944Z,3.90
2018-09-13T03:08:05.553Z,3.90
2018-09-13T03:09:37.242Z,3.10
2018-09-13T03:11:08.651Z,4.90
2018-09-13T03:12:40.363Z,3.40
2018-09-13T03:14:11.849Z,3.70
2018-09-13T03:15:43.511Z,3.20
2018-09-13T03:17:14.934Z,3.00
2018-09-13T03:18:46.505Z,3.10
2018-09-13T03:20:18.071Z,4.40
2018-09-13T03:21:49.892Z,3.80
2018-09-13T03:23:21.211Z,4.10
2018-09-13T03:24:52.779Z,4.20
2018-09-13T03:26:24.349Z,4.00
2018-09-13T03:27:56.069Z,4.60
2018-09-13T03:29:27.489Z,3.70
2018-09-13T03:30:59.057Z,4.40
2018-09-13T03:32:30.583Z,3.80
2018-09-13T03:34:02.242Z,3.80
2018-09-13T03:35:33.711Z,4.30
2018-09-13T03:37:05.287Z,4.20
2018-09-13T03:38:36.851Z,3.70
2018-09-13T03:40:08.627Z,4.80
2018-09-13T03:41:40.216Z,3.80
2018-09-13T03:43:11.561Z,4.50
2018-09-13T03:44:43.131Z,3.80
2018-09-13T03:46:14.809Z,3.80
2018-09-13T03:49:17.842Z,3.90
2018-09-13T03:50:49.426Z,4.70
2018-09-13T03:52:21.081Z,4.40
2018-09-13T03:53:52.553Z,4.40
2018-09-13T03:55:24.121Z,4.50
2018-09-13T03:56:55.690Z,5.00
2018-09-13T03:58:27.460Z,5.00
2018-09-13T03:59:58.829Z,4.70
2018-09-13T04:01:30.402Z,5.60
2018-09-13T04:03:01.969Z,6.10
2018-09-13T04:04:33.647Z,5.20
2018-09-13T04:06:05.116Z,5.60
2018-09-13T04:07:36.678Z,5.50
2018-09-13T04:09:08.262Z,4.90
2018-09-13T04:10:39.920Z,4.50
2018-09-13T04:12:11.386Z,4.30
2018-09-13T04:13:43.263Z,4.40
2018-09-13T04:15:14.532Z,3.80
2018-09-13T04:16:46.356Z,4.10
2018-09-13T04:18:17.674Z,3.80
2018-09-13T04:19:49.234Z,4.60
2018-09-13T04:21:20.812Z,4.10
2018-09-13T04:22:52.783Z,3.90
2018-09-13T04:24:23.944Z,4.20
2018-09-13T04:25:55.514Z,4.80
2018-09-13T04:27:27.084Z,6.20
2018-09-13T04:28:58.753Z,3.90
2018-09-13T04:30:30.223Z,4.30
2018-09-13T04:32:01.794Z,4.20
2018-09-13T04:33:33.362Z,5.20
2018-09-13T04:35:05.134Z,4.30
2018-09-13T04:36:36.512Z,5.40
2018-09-13T04:38:08.073Z,4.20
2018-09-13T04:39:39.642Z,5.10
2018-09-13T04:41:11.312Z,4.80
2018-09-13T04:42:42.785Z,4.90
2018-09-13T04:44:14.356Z,3.70
2018-09-13T04:45:46.124Z,4.70
2018-09-13T04:47:17.597Z,3.80
2018-09-13T04:48:49.061Z,5.40
2018-09-13T04:50:20.630Z,3.70
2018-09-13T04:51:52.201Z,5.30
2018-09-13T04:53:24.170Z,4.50
2018-09-13T04:54:55.340Z,4.50
2018-09-13T04:56:26.909Z,5.20
2018-09-13T04:57:58.480Z,6.00
2018-09-13T04:59:30.149Z,6.40
2018-09-13T05:01:01.618Z,4.60
2018-09-13T05:02:33.197Z,4.80
2018-09-13T05:04:04.759Z,4.90
2018-09-13T05:05:36.429Z,6.60
2018-09-13T05:07:07.899Z,6.70
2018-09-13T05:08:39.469Z,5.30
2018-09-13T05:10:11.036Z,5.80
2018-09-13T05:11:43.009Z,6.60
2018-09-13T05:13:14.177Z,5.80
2018-09-13T05:14:45.747Z,7.40
2018-09-13T05:16:17.316Z,6.70
2018-09-13T05:17:48.987Z,7.70
2018-09-13T05:19:20.456Z,8.30
2018-09-13T05:20:52.026Z,9.60
2018-09-13T05:22:23.595Z,8.70
2018-09-13T05:23:55.264Z,8.50
2018-09-13T05:25:26.741Z,7.80
2018-09-13T05:26:58.306Z,7.80
2018-09-13T05:28:29.873Z,7.90
2018-09-13T05:30:01.646Z,8.80
2018-09-13T05:31:33.061Z,6.30
2018-09-13T05:33:04.585Z,7.90
2018-09-13T05:34:36.150Z,6.30
2018-09-13T05:36:08.022Z,6.10
2018-09-13T05:37:39.294Z,7.40
2018-09-13T05:39:10.866Z,8.30
2018-09-13T05:40:42.431Z,8.90
2018-09-13T05:42:14.100Z,6.70
2018-09-13T05:43:45.570Z,7.70
2018-09-13T05:45:17.140Z,7.40
2018-09-13T05:46:48.713Z,8.50
2018-09-13T05:48:20.479Z,9.70
2018-09-13T05:49:51.848Z,7.70
2018-09-13T05:51:23.418Z,7.10
2018-09-13T05:52:54.989Z,8.20
2018-09-13T05:54:26.708Z,8.70
2018-09-13T05:55:58.127Z,8.90
2018-09-13T05:57:29.696Z,7.10
2018-09-13T05:59:01.267Z,7.50
2018-09-13T06:00:32.936Z,8.10
2018-09-13T06:02:04.407Z,7.40
2018-09-13T06:03:35.976Z,8.60
2018-09-13T06:05:07.548Z,7.10
2018-09-13T06:06:39.265Z,6.80
2018-09-13T06:08:10.685Z,7.70
2018-09-13T06:09:42.254Z,8.40
2018-09-13T06:11:13.823Z,6.10
2018-09-13T06:12:45.695Z,7.50
2018-09-13T06:14:16.962Z,6.30
2018-09-13T06:15:48.536Z,7.20
2018-09-13T06:17:20.102Z,5.80
2018-09-13T06:18:52.076Z,5.50
2018-09-13T06:20:23.240Z,4.90
2018-09-13T06:21:54.811Z,5.20
2018-09-13T06:23:26.382Z,5.80
2018-09-13T06:24:58.451Z,7.30
2018-09-13T06:26:29.520Z,5.40
2018-09-13T06:28:01.089Z,5.30
2018-09-13T06:29:32.740Z,5.90
2018-09-13T06:31:04.330Z,5.80
2018-09-13T06:32:35.798Z,6.20
2018-09-13T06:34:07.368Z,5.40
2018-09-13T06:35:38.937Z,6.10
2018-09-13T06:37:10.658Z,5.90
2018-09-13T06:38:42.077Z,5.50
2018-09-13T06:40:13.647Z,6.50
2018-09-13T06:41:45.523Z,6.40
2018-09-13T06:43:16.988Z,7.60
2018-09-13T06:44:48.359Z,7.40
2018-09-13T06:46:19.930Z,5.70
2018-09-13T06:47:51.498Z,6.40
2018-09-13T06:49:23.167Z,6.10
2018-09-13T06:50:54.636Z,7.00
2018-09-13T06:52:26.205Z,8.40
2018-09-13T06:53:57.777Z,8.10
2018-09-13T06:55:29.500Z,7.60
2018-09-13T06:57:00.915Z,7.70
2018-09-13T06:58:32.484Z,7.00
2018-09-13T07:00:04.054Z,9.50
2018-09-13T07:01:35.924Z,8.20
2018-09-13T07:03:07.193Z,7.50
2018-09-13T07:04:38.769Z,8.60
2018-09-13T07:06:10.333Z,6.90
2018-09-13T07:07:42.003Z,7.60
2018-09-13T07:09:13.579Z,8.60
2018-09-13T07:10:45.042Z,9.20
2018-09-13T07:12:16.611Z,8.30
2018-09-13T07:13:48.282Z,8.80
2018-09-13T07:15:19.751Z,8.60
2018-09-13T07:16:51.322Z,7.00
2018-09-13T07:18:22.890Z,8.60
2018-09-13T07:19:54.661Z,6.50
2018-09-13T07:21:26.029Z,6.70
2018-09-13T07:22:57.599Z,7.40
2018-09-13T07:24:29.168Z,6.50
2018-09-13T07:26:00.891Z,8.60
2018-09-13T07:27:32.307Z,6.90
2018-09-13T07:29:03.878Z,6.40
2018-09-13T07:30:35.448Z,7.40
2018-09-13T07:32:07.167Z,5.60
2018-09-13T07:33:38.586Z,7.40
2018-09-13T07:35:10.155Z,7.50
2018-09-13T07:36:41.732Z,8.70
2018-09-13T07:38:13.495Z,7.60
2018-09-13T07:39:44.866Z,8.60
2018-09-13T07:41:16.434Z,7.80
2018-09-13T07:42:48.085Z,7.10
2018-09-13T07:44:19.874Z,7.90
2018-09-13T07:45:51.143Z,8.00
2018-09-13T07:47:22.712Z,8.50
2018-09-13T07:48:54.325Z,8.00
2018-09-13T07:50:25.952Z,8.70
2018-09-13T07:51:57.421Z,8.50
2018-09-13T07:53:28.991Z,9.50
2018-09-13T07:55:00.560Z,8.50
2018-09-13T07:56:32.562Z,10.10
2018-09-13T07:58:03.699Z,11.90
2018-09-13T07:59:35.270Z,11.80
2018-09-13T08:01:06.840Z,12.00
2018-09-13T08:02:38.568Z,14.90
2018-09-13T08:04:09.986Z,13.30
2018-09-13T08:07:13.118Z,16.50
2018-09-13T08:08:44.838Z,13.80
2018-09-13T08:10:16.261Z,14.20
2018-09-13T08:11:47.862Z,15.20
2018-09-13T08:13:19.398Z,19.60
2018-09-13T08:14:51.419Z,15.70
2018-09-13T08:16:22.536Z,19.80
2018-09-13T08:17:54.105Z,19.80
2018-09-13T08:19:25.676Z,16.20
2018-09-13T08:20:57.346Z,17.40
2018-09-13T08:22:28.818Z,15.90
2018-09-13T08:24:00.387Z,18.00
2018-09-13T08:25:31.955Z,18.40
2018-09-13T08:27:03.891Z,17.60
2018-09-13T08:28:35.155Z,20.30
2018-09-13T08:30:06.664Z,21.40
2018-09-13T08:31:38.233Z,16.90
2018-09-13T08:33:10.114Z,20.30
2018-09-13T08:34:41.427Z,15.40
2018-09-13T08:36:12.949Z,17.50
2018-09-13T08:37:44.513Z,18.40
2018-09-13T08:39:16.183Z,17.50
2018-09-13T08:40:47.652Z,19.40
2018-09-13T08:42:19.222Z,20.20
2018-09-13T08:43:50.792Z,15.00
2018-09-13T08:45:22.662Z,15.70
2018-09-13T08:46:54.156Z,16.10
2018-09-13T08:48:25.522Z,15.00
2018-09-13T08:49:57.072Z,14.70
2018-09-13T08:51:28.892Z,15.70
2018-09-13T08:53:00.211Z,16.00
2018-09-13T08:54:31.782Z,15.50
2018-09-13T08:56:03.351Z,14.30
2018-09-13T08:57:35.221Z,17.00
2018-09-13T08:59:06.491Z,16.50
2018-09-13T09:00:38.103Z,15.70
2018-09-13T09:02:09.631Z,13.50
2018-09-13T09:03:41.302Z,17.80
2018-09-13T09:05:12.771Z,14.70
2018-09-13T09:06:44.340Z,17.40
2018-09-13T09:08:15.913Z,18.00
2018-09-13T09:09:47.680Z,17.00
2018-09-13T09:11:19.050Z,14.20
2018-09-13T09:12:50.620Z,17.20
2018-09-13T09:14:22.189Z,17.10
2018-09-13T09:15:53.859Z,19.00
2018-09-13T09:17:25.329Z,18.70
2018-09-13T09:20:28.469Z,17.40
2018-09-13T09:22:00.191Z,18.10
2018-09-13T09:23:31.675Z,15.70
2018-09-13T09:26:34.749Z,17.40
2018-09-13T09:28:06.521Z,14.50
2018-09-13T09:29:37.889Z,16.80
2018-09-13T09:31:09.459Z,13.20
2018-09-13T09:32:41.030Z,16.30
2018-09-13T09:34:12.700Z,16.30
2018-09-13T09:35:44.171Z,13.70
2018-09-13T09:37:15.941Z,14.00
2018-09-13T09:38:47.310Z,13.50
2018-09-13T09:40:18.983Z,14.20
2018-09-13T09:41:50.981Z,14.60
2018-09-13T09:43:22.023Z,16.50
2018-09-13T09:47:56.977Z,11.90
2018-09-13T09:49:28.505Z,13.10
2018-09-13T09:50:59.872Z,11.40
2018-09-13T09:52:31.878Z,13.00
2018-09-13T09:54:03.656Z,12.00
2018-09-13T09:55:35.919Z,12.00
2018-09-13T09:57:07.277Z,11.90
2018-09-13T09:58:37.954Z,11.80
2018-09-13T10:00:10.316Z,11.00
2018-09-13T10:01:41.181Z,11.30
2018-09-13T10:03:13.528Z,12.30
2018-09-13T10:04:44.725Z,11.80
2018-09-13T10:06:15.927Z,13.90
2018-09-13T10:07:47.447Z,10.10
2018-09-13T10:09:19.216Z,13.00
2018-09-13T10:10:50.710Z,13.40
2018-09-13T10:12:22.315Z,12.80
2018-09-13T10:13:54.191Z,12.40
2018-09-13T10:15:25.318Z,15.50
2018-09-13T10:16:56.927Z,13.10
2018-09-13T10:18:29.048Z,12.00
2018-09-13T10:20:00.499Z,12.80
2018-09-13T10:21:31.427Z,12.80
2018-09-13T10:24:35.465Z,12.30
2018-09-13T10:26:06.036Z,13.90
2018-09-13T10:27:38.802Z,14.20
2018-09-13T10:29:09.406Z,12.30
2018-09-13T10:30:42.214Z,10.30
2018-09-13T10:32:12.768Z,12.40
2018-09-13T10:33:45.205Z,12.80
2018-09-13T10:35:15.637Z,12.20
2018-09-13T10:36:47.925Z,12.40
2018-09-13T10:38:18.828Z,12.80
2018-09-13T10:39:50.203Z,11.90
2018-09-13T10:41:22.052Z,11.10
2018-09-13T10:42:55.008Z,13.10
2018-09-13T10:45:57.453Z,12.40
2018-09-13T10:47:28.156Z,10.70
2018-09-13T10:50:32.216Z,14.10
2018-09-13T10:52:03.492Z,12.50
2018-09-13T10:53:34.521Z,11.50
2018-09-13T10:55:06.067Z,12.20
2018-09-13T10:56:37.881Z,14.20
2018-09-13T10:58:09.082Z,14.50
2018-09-13T10:59:41.183Z,13.80
2018-09-13T11:01:12.217Z,10.60
2018-09-13T11:02:44.019Z,15.10
2018-09-13T11:04:15.532Z,13.50
2018-09-13T11:05:48.227Z,13.90
2018-09-13T11:07:20.489Z,13.10
2018-09-13T11:08:52.710Z,13.30
2018-09-13T11:10:23.093Z,14.50
2018-09-13T11:11:54.034Z,15.00
2018-09-13T11:13:25.199Z,14.60
2018-09-13T11:14:56.956Z,13.20
2018-09-13T11:16:28.917Z,13.10
2018-09-13T11:18:00.762Z,13.30
2018-09-13T11:21:03.635Z,14.00
2018-09-13T11:22:35.165Z,15.20
2018-09-13T11:24:06.914Z,15.60
2018-09-13T11:25:38.732Z,12.90
2018-09-13T11:27:09.873Z,14.60
2018-09-13T11:28:41.121Z,16.40
2018-09-13T11:30:12.134Z,14.90
2018-09-13T11:31:44.349Z,14.00
2018-09-13T11:33:16.553Z,15.00
2018-09-13T11:34:47.602Z,12.60
2018-09-13T11:36:18.779Z,18.60
2018-09-13T11:37:50.490Z,15.10
2018-09-13T11:39:24.567Z,17.00
2018-09-13T11:40:55.001Z,16.30
2018-09-13T11:42:24.850Z,18.20
2018-09-13T11:43:58.611Z,16.40
2018-09-13T11:45:30.212Z,16.20
2018-09-13T11:47:00.230Z,14.70
2018-09-13T11:48:31.869Z,18.20
2018-09-13T11:50:04.315Z,15.40
2018-09-13T11:51:35.819Z,15.80
2018-09-13T11:53:07.709Z,16.40
2018-09-13T11:54:38.424Z,15.30
2018-09-13T11:56:09.060Z,14.20
2018-09-13T11:57:42.259Z,17.00
2018-09-13T11:59:12.212Z,17.20
2018-09-13T12:00:46.236Z,16.40
2018-09-13T12:02:16.203Z,19.30
2018-09-13T12:03:47.890Z,16.80
2018-09-13T12:05:20.835Z,18.00
2018-09-13T12:06:52.257Z,21.50
2018-09-13T12:08:22.402Z,22.00
2018-09-13T12:09:54.435Z,19.60
2018-09-13T12:11:25.680Z,19.40
2018-09-13T12:12:56.935Z,19.10
2018-09-13T12:14:28.888Z,17.80
2018-09-13T12:16:00.058Z,23.00
2018-09-13T12:17:32.266Z,18.40
2018-09-13T12:19:04.025Z,18.60
2018-09-13T12:20:35.604Z,16.90
2018-09-13T12:22:07.874Z,17.00
2018-09-13T12:23:37.742Z,16.90
2018-09-13T12:25:09.515Z,19.70
2018-09-13T12:26:40.999Z,16.70
2018-09-13T12:28:12.875Z,17.00
2018-09-13T12:29:44.194Z,18.40
2018-09-13T12:31:15.568Z,18.20
2018-09-13T12:32:46.645Z,14.80
2018-09-13T12:34:18.733Z,16.10
2018-09-13T12:35:50.828Z,15.70
2018-09-13T12:37:23.147Z,15.70
2018-09-13T12:38:53.702Z,16.90
2018-09-13T12:40:25.790Z,19.20
2018-09-13T12:41:57.737Z,16.10
2018-09-13T12:43:29.202Z,14.90
2018-09-13T12:45:00.369Z,15.90
2018-09-13T12:46:31.043Z,17.90
2018-09-13T12:48:03.322Z,16.60
2018-09-13T12:49:35.460Z,21.30
2018-09-13T12:51:07.000Z,19.30
2018-09-13T12:52:38.874Z,15.90
2018-09-13T12:54:09.603Z,21.30
2018-09-13T12:55:41.072Z,16.40
2018-09-13T12:57:12.455Z,15.20
2018-09-13T12:58:44.897Z,15.40
2018-09-13T13:00:16.518Z,15.80
2018-09-13T13:01:46.948Z,19.00
2018-09-13T13:03:18.145Z,16.20
2018-09-13T13:04:50.214Z,14.20
2018-09-13T13:06:21.332Z,16.00
2018-09-13T13:07:52.828Z,17.20
2018-09-13T13:09:24.675Z,14.90
2018-09-13T13:10:56.395Z,13.50
2018-09-13T13:12:28.207Z,14.50
2018-09-13T13:13:59.736Z,14.50
2018-09-13T13:15:30.729Z,14.80
2018-09-13T13:17:02.776Z,13.30
2018-09-13T13:18:34.081Z,14.20
2018-09-13T13:20:06.392Z,13.50
2018-09-13T13:21:37.227Z,13.50
2018-09-13T13:23:09.100Z,13.80
2018-09-13T13:24:40.254Z,15.70
2018-09-13T13:26:12.274Z,17.00
2018-09-13T13:27:43.624Z,17.00
2018-09-13T13:29:15.553Z,14.40
2018-09-13T13:30:46.698Z,15.80
2018-09-13T13:32:18.431Z,13.70
2018-09-13T13:33:49.765Z,15.10
2018-09-13T13:35:21.468Z,14.60
2018-09-13T13:36:53.486Z,15.10
2018-09-13T13:38:24.798Z,17.60
2018-09-13T13:39:56.143Z,15.80
2018-09-13T13:41:28.005Z,14.00
2018-09-13T13:42:59.631Z,13.40
2018-09-13T13:44:30.816Z,16.30
2018-09-13T13:46:02.458Z,14.70
2018-09-13T13:47:34.459Z,15.90
2018-09-13T13:49:05.756Z,15.10
2018-09-13T13:50:37.155Z,14.20
2018-09-13T13:52:08.706Z,15.10
2018-09-13T13:53:40.701Z,13.40
2018-09-13T13:55:12.069Z,13.20
2018-09-13T13:56:43.799Z,13.70
2018-09-13T13:59:47.331Z,13.00
2018-09-13T14:01:18.314Z,13.30
2018-09-13T14:02:50.057Z,15.00
2018-09-13T14:04:21.896Z,13.60
2018-09-13T14:05:54.125Z,12.80
2018-09-13T14:07:26.556Z,12.90
2018-09-13T14:08:56.503Z,13.70
2018-09-13T14:12:00.339Z,12.80
2018-09-13T14:13:31.055Z,12.80
2018-09-13T14:15:02.710Z,13.00
2018-09-13T14:16:35.437Z,12.50
2018-09-13T14:18:06.178Z,12.50
2018-09-13T14:19:37.668Z,14.20
2018-09-13T14:21:09.488Z,13.20
2018-09-13T14:22:40.633Z,13.80
2018-09-13T14:24:12.246Z,12.90
2018-09-13T14:25:44.064Z,13.50
2018-09-13T14:27:16.373Z,13.10
2018-09-13T14:28:46.656Z,12.60
2018-09-13T14:30:18.855Z,13.20
2018-09-13T14:31:50.325Z,12.90
2018-09-13T14:33:22.373Z,14.20
2018-09-13T14:34:56.324Z,13.80
2018-09-13T14:36:26.416Z,15.60
2018-09-13T14:37:58.406Z,14.10
2018-09-13T14:39:30.374Z,12.50
2018-09-13T14:41:00.146Z,13.20
2018-09-13T14:42:33.406Z,14.50
2018-09-13T14:44:03.870Z,14.90
2018-09-13T14:45:35.178Z,12.70
2018-09-13T14:47:07.973Z,12.20
2018-09-13T14:48:39.929Z,12.70
2018-09-13T14:50:10.408Z,13.70
2018-09-13T14:51:43.032Z,12.40
2018-09-13T14:53:14.634Z,13.10
2018-09-13T14:54:45.064Z,13.50
2018-09-13T14:56:16.715Z,13.70
2018-09-13T14:57:48.201Z,13.50
2018-09-13T14:59:20.054Z,14.50
2018-09-13T15:00:51.773Z,13.50
2018-09-13T15:02:22.989Z,13.90
2018-09-13T15:03:54.865Z,13.00
2018-09-13T15:05:25.227Z,14.50
2018-09-13T15:06:57.431Z,13.90
2018-09-13T15:08:28.063Z,14.30
2018-09-13T15:09:59.848Z,14.80
2018-09-13T15:11:31.568Z,12.60
2018-09-13T15:14:34.454Z,15.20
2018-09-13T15:16:05.763Z,14.40
2018-09-13T15:19:09.558Z,14.90
2018-09-13T15:20:40.923Z,15.20
2018-09-13T15:23:44.025Z,14.10
2018-09-13T15:25:15.273Z,14.90
2018-09-13T15:26:47.769Z,14.30
2018-09-13T15:29:50.249Z,12.70
2018-09-13T15:31:22.109Z,13.70
2018-09-13T15:32:53.439Z,13.30
2018-09-13T15:34:24.789Z,13.70
2018-09-13T15:35:56.681Z,13.30
2018-09-13T15:37:28.010Z,13.40
2018-09-13T15:39:00.848Z,13.30
2018-09-13T15:40:31.131Z,12.60
2018-09-13T15:42:02.837Z,13.70
2018-09-13T15:43:35.106Z,12.90
2018-09-13T15:45:07.915Z,12.30
2018-09-13T15:46:37.575Z,13.20
2018-09-13T15:48:09.491Z,14.20
2018-09-13T15:49:40.816Z,16.50
2018-09-13T15:51:12.331Z,14.40
2018-09-13T15:52:43.861Z,14.40
2018-09-13T15:54:15.631Z,15.10
2018-09-13T15:55:48.014Z,14.60
2018-09-13T15:57:19.331Z,14.60
2018-09-13T15:58:50.895Z,12.90
2018-09-13T16:00:22.009Z,12.90
2018-09-13T16:01:54.133Z,16.40
2018-09-13T16:03:25.558Z,13.20
2018-09-13T16:04:56.673Z,14.70
2018-09-13T16:06:29.184Z,12.10
2018-09-13T16:09:32.615Z,13.30
2018-09-13T16:11:04.297Z,14.20
2018-09-13T16:12:35.944Z,14.10
2018-09-13T16:14:06.723Z,15.00
2018-09-13T16:15:38.377Z,15.50
2018-09-13T16:17:09.266Z,13.60
2018-09-13T16:18:40.808Z,14.60
2018-09-13T16:20:12.512Z,14.20
2018-09-13T16:21:44.965Z,15.60
2018-09-13T16:23:15.712Z,15.10
2018-09-13T16:24:48.154Z,17.20
2018-09-13T16:26:18.991Z,15.90
2018-09-13T16:27:54.780Z,14.90
2018-09-13T16:29:23.351Z,15.50
2018-09-13T16:30:55.809Z,16.50
2018-09-13T16:32:27.223Z,14.90
2018-09-13T16:34:01.194Z,14.90
2018-09-13T16:35:28.649Z,15.00
2018-09-13T16:37:01.821Z,14.60
2018-09-13T16:38:33.270Z,15.50
2018-09-13T16:40:04.613Z,13.90
2018-09-13T16:41:36.738Z,14.20
2018-09-13T16:43:08.605Z,14.70
2018-09-13T16:44:38.644Z,14.80
2018-09-13T16:46:10.400Z,14.40
2018-09-13T16:47:42.046Z,14.80
2018-09-13T16:49:12.999Z,16.70
2018-09-13T16:50:44.273Z,15.20
2018-09-13T16:52:17.685Z,13.80
2018-09-13T16:53:48.283Z,13.30
2018-09-13T16:55:19.530Z,14.50
2018-09-13T16:56:50.473Z,14.30
2018-09-13T16:59:54.007Z,17.20
2018-09-13T17:01:25.186Z,18.40
2018-09-13T17:02:57.359Z,18.00
2018-09-13T17:04:28.570Z,17.00
2018-09-13T17:06:00.248Z,17.00
2018-09-13T17:07:32.302Z,19.60
2018-09-13T17:09:03.476Z,17.90
2018-09-13T17:10:34.703Z,18.20
2018-09-13T17:12:06.491Z,17.30
2018-09-13T17:13:37.927Z,18.00
2018-09-13T17:15:09.762Z,19.10
2018-09-13T17:16:41.053Z,17.00
2018-09-13T17:18:12.931Z,16.90
2018-09-13T17:19:44.216Z,16.40
2018-09-13T17:22:47.690Z,18.80
2018-09-13T17:24:19.084Z,17.50
2018-09-13T17:27:22.187Z,18.10
2018-09-13T17:28:53.727Z,19.50
2018-09-13T17:30:25.543Z,19.50
2018-09-13T17:31:56.937Z,19.30
2018-09-13T17:35:03.629Z,19.10
2018-09-13T17:36:31.750Z,18.20
2018-09-13T17:38:03.243Z,21.40
2018-09-13T17:39:35.022Z,18.10
2018-09-13T17:41:06.404Z,18.00
2018-09-13T17:42:38.092Z,20.60
2018-09-13T17:44:09.843Z,16.80
2018-09-13T17:45:41.785Z,17.10
2018-09-13T17:47:12.841Z,17.10
2018-09-13T17:48:44.841Z,16.20
2018-09-13T17:50:16.148Z,16.00
2018-09-13T17:51:48.028Z,17.10
2018-09-13T17:53:19.087Z,16.20
2018-09-13T17:57:53.933Z,18.20
2018-09-13T17:59:25.621Z,17.80
2018-09-13T18:00:57.609Z,15.70
2018-09-13T18:02:28.636Z,17.60
2018-09-13T18:04:00.724Z,17.70
2018-09-13T18:07:03.538Z,16.00
2018-09-13T18:08:35.277Z,17.40
2018-09-13T18:10:07.515Z,17.80
2018-09-13T18:11:38.393Z,17.80
2018-09-13T18:13:09.726Z,17.00
2018-09-13T18:16:13.242Z,16.60
2018-09-13T18:17:44.420Z,17.50
2018-09-13T18:19:16.004Z,18.60
2018-09-13T18:20:48.004Z,17.30
2018-09-13T18:22:19.895Z,18.30
2018-09-13T18:23:51.006Z,16.20
2018-09-13T18:25:22.541Z,19.20
2018-09-13T18:28:25.608Z,17.30
2018-09-13T18:31:28.738Z,19.40
2018-09-13T18:33:00.250Z,18.00
2018-09-13T18:34:32.472Z,17.20
2018-09-13T18:36:03.676Z,17.40
2018-09-13T18:37:35.003Z,15.90
2018-09-13T18:39:06.591Z,17.30
2018-09-13T18:40:38.425Z,17.20
2018-09-13T18:42:09.948Z,20.50
2018-09-13T18:45:12.934Z,17.90
2018-09-13T18:46:45.124Z,18.70
2018-09-13T18:48:16.131Z,15.50
2018-09-13T18:51:19.568Z,18.30
2018-09-13T18:54:23.044Z,18.30
2018-09-13T18:55:54.489Z,16.20
2018-09-13T18:58:57.751Z,18.60
2018-09-13T19:00:28.926Z,16.90
2018-09-13T19:02:00.352Z,18.50
2018-09-13T19:05:03.470Z,18.10
2018-09-13T19:06:35.251Z,18.60
2018-09-13T19:08:07.176Z,18.00
2018-09-13T19:09:38.212Z,19.20
2018-09-13T19:11:09.840Z,20.40
2018-09-13T19:12:41.566Z,19.30
2018-09-13T19:14:13.259Z,20.00
2018-09-13T19:15:44.585Z,21.90
2018-09-13T19:17:16.246Z,20.40
2018-09-13T19:20:19.679Z,21.40
2018-09-13T19:23:22.437Z,21.50
2018-09-13T19:24:54.220Z,23.80
2018-09-13T19:26:25.696Z,23.10
2018-09-13T19:27:57.707Z,21.90
2018-09-13T19:29:28.957Z,24.30
2018-09-13T19:32:32.317Z,23.60
2018-09-13T19:34:03.492Z,24.00
2018-09-13T19:35:35.071Z,26.20
2018-09-13T19:37:06.887Z,27.30
2018-09-13T19:41:41.584Z,29.00
2018-09-13T19:44:44.913Z,25.90
2018-09-13T19:46:16.151Z,26.60
2018-09-13T19:49:19.372Z,27.60
2018-09-13T19:50:51.417Z,27.90
2018-09-13T19:53:54.002Z,27.10
2018-09-13T19:55:25.678Z,30.80
2018-09-13T19:56:57.360Z,28.70
2018-09-13T19:58:28.730Z,30.90
2018-09-13T20:00:00.308Z,32.60
2018-09-13T20:01:32.083Z,31.10
2018-09-13T20:03:03.721Z,30.60
2018-09-13T20:04:35.115Z,32.40
2018-09-13T20:06:06.608Z,34.90
2018-09-13T20:07:38.305Z,31.20
2018-09-13T20:09:09.926Z,35.30
2018-09-13T20:12:13.113Z,36.90
2018-09-13T20:13:44.581Z,40.40
2018-09-13T20:15:16.992Z,38.00
2018-09-13T20:16:47.631Z,37.50
2018-09-13T20:18:19.303Z,43.30
2018-09-13T20:19:51.031Z,37.90
2018-09-13T20:21:22.350Z,37.10
2018-09-13T20:22:53.924Z,34.50
2018-09-13T20:24:25.499Z,35.80
2018-09-13T20:25:57.706Z,37.10
2018-09-13T20:29:00.317Z,37.80
2018-09-13T20:30:31.796Z,36.50
2018-09-13T20:32:03.464Z,32.20
2018-09-13T20:33:34.987Z,36.80
2018-09-13T20:35:06.511Z,36.30
2018-09-13T20:36:38.083Z,36.50
2018-09-13T20:38:09.858Z,36.70
2018-09-13T20:41:13.005Z,38.80
2018-09-13T20:42:44.480Z,36.60
2018-09-13T20:44:16.050Z,38.80
2018-09-13T20:47:19.097Z,38.20
2018-09-13T20:48:50.669Z,38.40
2018-09-13T20:50:22.341Z,39.30
2018-09-13T20:51:53.813Z,38.20
2018-09-13T20:53:25.386Z,43.20
2018-09-13T20:54:57.263Z,36.50
2018-09-13T20:56:28.732Z,38.80
2018-09-13T20:58:00.105Z,37.30
2018-09-13T20:59:31.677Z,40.20
2018-09-13T21:01:03.251Z,49.00
2018-09-13T21:02:34.922Z,41.30
2018-09-13T21:04:06.394Z,43.90